EGXT

RAF Wittering

Airport
ICAO code
EGXT
Summary
ICAO Region
EUR
ICAO Territory
Location

, England

Serving
Wittering
Elevation
273 ft
Coordinates
52° 36' 45" N , 0° 28' 35" W
Metar
EGXT 230050Z AUTO 20011KT 9999 NCD 02/00 Q0982

Runways

Designator Length Width Surface Rops
8/26 2759 61 ASP No/No

Airport map

Aerial View

SKYbrary Partners:

Safety knowledge contributed by: